createdAt,value
2022-11-12T00:00:37.987Z,16.74
2022-11-12T00:01:19.425Z,16.71
2022-11-12T00:01:59.531Z,16.68
2022-11-12T00:02:39.815Z,16.71
2022-11-12T00:03:21.638Z,16.72
2022-11-12T00:04:01.792Z,16.75
2022-11-12T00:04:43.200Z,16.75
2022-11-12T00:05:23.389Z,16.75
2022-11-12T00:06:04.684Z,16.74
2022-11-12T00:06:46.160Z,16.74
2022-11-12T00:07:27.319Z,16.72
2022-11-12T00:08:08.464Z,16.76
2022-11-12T00:08:49.599Z,16.77
2022-11-12T00:09:29.529Z,16.78
2022-11-12T00:10:10.422Z,16.73
2022-11-12T00:10:51.795Z,16.67
2022-11-12T00:11:31.807Z,16.53
2022-11-12T00:12:13.051Z,16.64
2022-11-12T00:12:53.446Z,16.59
2022-11-12T00:13:34.507Z,16.59
2022-11-12T00:14:14.987Z,16.60
2022-11-12T00:14:55.227Z,16.61
2022-11-12T00:15:36.570Z,16.60
2022-11-12T00:16:16.845Z,16.62
2022-11-12T00:16:56.956Z,16.57
2022-11-12T00:17:38.459Z,16.59
2022-11-12T00:18:18.521Z,16.60
2022-11-12T00:19:00.024Z,16.61
2022-11-12T00:19:40.057Z,16.61
2022-11-12T00:20:20.738Z,16.59
2022-11-12T00:21:01.692Z,16.61
2022-11-12T00:21:42.226Z,16.64
2022-11-12T00:22:24.719Z,16.67
2022-11-12T00:23:04.786Z,16.68
2022-11-12T00:23:45.143Z,16.67
2022-11-12T00:24:26.555Z,16.68
2022-11-12T00:25:07.975Z,16.61
2022-11-12T00:25:49.105Z,16.64
2022-11-12T00:26:29.181Z,16.63
2022-11-12T00:27:09.461Z,16.62
2022-11-12T00:27:50.864Z,16.65
2022-11-12T00:28:37.291Z,16.66
2022-11-12T00:29:19.104Z,16.61
2022-11-12T00:29:59.336Z,16.56
2022-11-12T00:30:40.626Z,16.58
2022-11-12T00:31:21.950Z,16.57
2022-11-12T00:32:02.106Z,16.61
2022-11-12T00:32:42.468Z,16.65
2022-11-12T00:33:23.863Z,16.61
2022-11-12T00:34:03.940Z,16.60
2022-11-12T00:34:45.290Z,16.59
2022-11-12T00:35:25.533Z,16.58
2022-11-12T00:36:06.336Z,16.54
2022-11-12T00:36:47.705Z,16.55
2022-11-12T00:37:29.185Z,16.55
2022-11-12T00:38:09.610Z,16.53
2022-11-12T00:38:50.923Z,16.57
2022-11-12T00:39:31.176Z,16.56
2022-11-12T00:40:12.739Z,16.56
2022-11-12T00:40:53.053Z,16.55
2022-11-12T00:41:34.309Z,16.60
2022-11-12T00:42:14.520Z,16.60
2022-11-12T00:42:55.126Z,16.39
2022-11-12T00:43:40.006Z,16.44
2022-11-12T00:44:20.820Z,16.50
2022-11-12T00:45:01.386Z,16.58
2022-11-12T00:45:43.791Z,16.57
2022-11-12T00:46:23.967Z,16.38
2022-11-12T00:47:04.331Z,16.46
2022-11-12T00:47:45.669Z,16.43
2022-11-12T00:48:26.021Z,16.52
2022-11-12T00:49:06.633Z,16.53
2022-11-12T00:49:47.887Z,16.53
2022-11-12T00:50:28.160Z,16.56
2022-11-12T00:51:10.194Z,16.52
2022-11-12T00:51:50.390Z,16.45
2022-11-12T00:52:32.805Z,16.47
2022-11-12T00:53:12.846Z,16.48
2022-11-12T00:53:53.203Z,16.49
2022-11-12T00:54:34.333Z,16.36
2022-11-12T00:55:14.516Z,16.35
2022-11-12T00:56:00.194Z,16.40
2022-11-12T00:56:41.397Z,16.35
2022-11-12T00:57:21.567Z,16.34
2022-11-12T00:58:03.011Z,16.39
2022-11-12T00:58:43.042Z,16.41
2022-11-12T00:59:23.552Z,16.38
2022-11-12T01:00:06.157Z,16.37
2022-11-12T01:00:46.268Z,16.39
2022-11-12T01:01:28.333Z,16.37
2022-11-12T01:02:08.950Z,16.41
2022-11-12T01:02:51.295Z,16.38
2022-11-12T01:03:32.930Z,16.31
2022-11-12T01:04:13.182Z,16.34
2022-11-12T01:04:53.550Z,16.30
2022-11-12T01:05:34.920Z,16.30
2022-11-12T01:06:16.953Z,16.22
2022-11-12T01:06:57.428Z,16.20
2022-11-12T01:07:39.983Z,16.22
2022-11-12T01:08:20.234Z,16.15
2022-11-12T01:09:01.800Z,16.18
2022-11-12T01:09:42.194Z,16.16
2022-11-12T01:10:22.731Z,16.15
2022-11-12T01:11:09.211Z,16.14
2022-11-12T01:11:49.719Z,16.16
2022-11-12T01:12:30.779Z,16.20
2022-11-12T01:13:11.879Z,16.16
2022-11-12T01:13:55.283Z,16.12
2022-11-12T01:14:39.615Z,16.14
2022-11-12T01:15:19.729Z,16.12
2022-11-12T01:16:05.425Z,16.15
2022-11-12T01:16:45.919Z,16.10
2022-11-12T01:17:27.165Z,16.04
2022-11-12T01:18:07.383Z,16.01
2022-11-12T01:18:52.115Z,15.81
2022-11-12T01:19:33.388Z,15.93
2022-11-12T01:20:13.449Z,15.92
2022-11-12T01:20:53.766Z,15.95
2022-11-12T01:21:39.083Z,15.86
2022-11-12T01:22:19.384Z,15.86
2022-11-12T01:23:01.812Z,15.84
2022-11-12T01:23:42.540Z,15.84
2022-11-12T01:24:22.971Z,15.87
2022-11-12T01:25:04.593Z,15.90
2022-11-12T01:25:44.972Z,15.93
2022-11-12T01:26:28.241Z,15.90
2022-11-12T01:27:08.660Z,15.94
2022-11-12T01:27:50.041Z,15.95
2022-11-12T01:28:30.338Z,15.92
2022-11-12T01:29:10.598Z,15.81
2022-11-12T01:29:51.989Z,15.93
2022-11-12T01:30:32.239Z,15.95
2022-11-12T01:31:15.374Z,15.96
2022-11-12T01:31:55.750Z,15.97
2022-11-12T01:32:37.912Z,15.92
2022-11-12T01:33:18.252Z,15.98
2022-11-12T01:34:01.073Z,15.97
2022-11-12T01:34:42.447Z,15.99
2022-11-12T01:35:22.453Z,15.97
2022-11-12T01:36:02.953Z,16.07
2022-11-12T01:36:44.171Z,15.93
2022-11-12T01:37:24.383Z,16.01
2022-11-12T01:38:05.975Z,15.99
2022-11-12T01:38:48.474Z,15.79
2022-11-12T01:39:28.661Z,15.89
2022-11-12T01:40:11.110Z,15.82
2022-11-12T01:40:51.050Z,15.80
2022-11-12T01:41:34.067Z,15.76
2022-11-12T01:42:14.964Z,15.69
2022-11-12T01:42:55.231Z,15.73
2022-11-12T01:43:35.758Z,15.76
2022-11-12T01:44:19.623Z,15.74
2022-11-12T01:44:59.794Z,15.79
2022-11-12T01:45:45.804Z,15.81
2022-11-12T01:46:28.849Z,15.80
2022-11-12T01:47:15.639Z,15.83
2022-11-12T01:47:56.043Z,15.64
2022-11-12T01:48:41.117Z,15.77
2022-11-12T01:49:27.710Z,15.79
2022-11-12T01:50:17.680Z,15.81
2022-11-12T01:50:59.288Z,15.82
2022-11-12T01:51:42.667Z,15.81
2022-11-12T01:52:28.254Z,15.77
2022-11-12T01:53:12.741Z,15.81
2022-11-12T01:53:59.079Z,15.75
2022-11-12T01:54:41.023Z,15.72
2022-11-12T01:55:26.556Z,15.72
2022-11-12T01:56:07.808Z,15.75
2022-11-12T01:56:50.021Z,15.78
2022-11-12T01:57:35.287Z,15.78
2022-11-12T01:58:20.513Z,15.80
2022-11-12T01:59:07.059Z,15.80
2022-11-12T01:59:51.190Z,15.78
2022-11-12T02:00:31.239Z,15.77
2022-11-12T02:01:11.555Z,15.74
2022-11-12T02:01:52.896Z,15.77
2022-11-12T02:02:34.412Z,15.78
2022-11-12T02:03:19.252Z,15.78
2022-11-12T02:04:00.688Z,15.74
2022-11-12T02:04:43.399Z,15.65
2022-11-12T02:05:27.071Z,15.65
2022-11-12T02:06:12.239Z,15.63
2022-11-12T02:06:55.907Z,15.70
2022-11-12T02:07:38.810Z,15.72
2022-11-12T02:08:22.806Z,15.73
2022-11-12T02:09:04.103Z,15.62
2022-11-12T02:09:44.099Z,15.74
2022-11-12T02:10:26.485Z,15.75
2022-11-12T02:11:13.004Z,15.81
2022-11-12T02:11:53.048Z,15.81
2022-11-12T02:12:52.211Z,15.63
2022-11-12T02:13:50.340Z,15.65
2022-11-12T02:14:32.635Z,15.69
2022-11-12T02:15:12.875Z,15.61
2022-11-12T02:15:53.460Z,15.59
2022-11-12T02:16:37.803Z,15.58
2022-11-12T02:17:17.955Z,15.54
2022-11-12T02:17:58.403Z,15.53
2022-11-12T02:18:39.527Z,15.55
2022-11-12T02:19:20.130Z,15.55
2022-11-12T02:20:02.034Z,15.50
2022-11-12T02:20:42.300Z,15.57
2022-11-12T02:21:24.725Z,15.45
2022-11-12T02:22:05.717Z,15.45
2022-11-12T02:22:45.929Z,15.46
2022-11-12T02:23:26.253Z,15.54
2022-11-12T02:24:28.337Z,15.56
2022-11-12T02:25:14.244Z,15.58
2022-11-12T02:25:54.791Z,15.61
2022-11-12T02:26:39.752Z,15.59
2022-11-12T02:27:20.879Z,15.56
2022-11-12T02:28:02.522Z,15.56
2022-11-12T02:28:43.952Z,15.58
2022-11-12T02:29:24.384Z,15.54
2022-11-12T02:30:05.871Z,15.57
2022-11-12T02:30:49.310Z,15.60
2022-11-12T02:31:29.724Z,15.54
2022-11-12T02:32:10.819Z,15.63
2022-11-12T02:32:51.381Z,15.68
2022-11-12T02:33:31.585Z,15.69
2022-11-12T02:34:12.878Z,15.64
2022-11-12T02:34:53.085Z,15.68
2022-11-12T02:35:33.568Z,15.69
2022-11-12T02:36:14.594Z,15.67
2022-11-12T02:36:54.572Z,15.67
2022-11-12T02:37:35.126Z,15.55
2022-11-12T02:38:16.496Z,15.72
2022-11-12T02:38:57.160Z,15.58
2022-11-12T02:39:38.604Z,15.67
2022-11-12T02:40:20.044Z,15.72
2022-11-12T02:41:00.201Z,15.70
2022-11-12T02:41:41.646Z,15.63
2022-11-12T02:42:21.587Z,15.63
2022-11-12T02:43:01.998Z,15.66
2022-11-12T02:43:43.953Z,15.58
2022-11-12T02:44:24.003Z,15.58
2022-11-12T02:45:06.583Z,15.58
2022-11-12T02:45:46.631Z,15.57
2022-11-12T02:46:26.907Z,15.55
2022-11-12T02:47:08.179Z,15.59
2022-11-12T02:47:48.387Z,15.49
2022-11-12T02:48:28.641Z,15.48
2022-11-12T02:49:10.272Z,15.46
2022-11-12T02:49:50.207Z,15.45
2022-11-12T02:50:31.637Z,15.44
2022-11-12T02:51:11.706Z,15.46
2022-11-12T02:51:51.945Z,15.40
2022-11-12T02:52:33.296Z,15.34
2022-11-12T02:53:13.632Z,15.41
2022-11-12T02:53:54.876Z,15.38
2022-11-12T02:54:34.905Z,15.43
2022-11-12T02:55:15.443Z,15.43
2022-11-12T02:55:57.899Z,15.44
2022-11-12T02:56:37.859Z,15.25
2022-11-12T02:57:19.400Z,15.30
2022-11-12T02:57:59.785Z,15.35
2022-11-12T02:58:40.874Z,15.17
2022-11-12T02:59:21.025Z,15.24
2022-11-12T03:00:01.237Z,15.32
2022-11-12T03:00:42.672Z,15.33
2022-11-12T03:01:23.126Z,15.33
2022-11-12T03:02:03.330Z,15.28
2022-11-12T03:02:58.710Z,15.14
2022-11-12T03:03:38.993Z,15.22
2022-11-12T03:04:20.300Z,15.22
2022-11-12T03:05:00.396Z,15.06
2022-11-12T03:05:40.752Z,15.18
2022-11-12T03:06:22.148Z,15.21
2022-11-12T03:07:02.386Z,15.25
2022-11-12T03:07:42.684Z,15.25
2022-11-12T03:08:24.675Z,15.25
2022-11-12T03:09:05.035Z,15.26
2022-11-12T03:09:46.352Z,15.33
2022-11-12T03:10:26.863Z,15.26
2022-11-12T03:11:10.772Z,15.30
2022-11-12T03:11:51.800Z,15.35
2022-11-12T03:12:32.660Z,15.35
2022-11-12T03:13:12.863Z,15.40
2022-11-12T03:13:54.177Z,15.37
2022-11-12T03:14:34.243Z,15.39
2022-11-12T03:15:14.742Z,15.33
2022-11-12T03:16:00.416Z,15.39
2022-11-12T03:16:40.696Z,15.48
2022-11-12T03:17:21.058Z,15.30
2022-11-12T03:18:02.300Z,15.36
2022-11-12T03:18:42.272Z,15.34
2022-11-12T03:19:23.558Z,15.22
2022-11-12T03:20:04.055Z,15.29
2022-11-12T03:20:44.449Z,15.25
2022-11-12T03:21:25.694Z,15.31
2022-11-12T03:22:05.853Z,15.34
2022-11-12T03:22:55.511Z,15.29
2022-11-12T03:23:36.439Z,15.32
2022-11-12T03:24:16.751Z,15.34
2022-11-12T03:24:57.254Z,15.32
2022-11-12T03:25:38.664Z,15.27
2022-11-12T03:26:20.387Z,15.23
2022-11-12T03:27:00.803Z,15.22
2022-11-12T03:27:42.033Z,15.21
2022-11-12T03:28:22.380Z,15.17
2022-11-12T03:29:04.011Z,15.08
2022-11-12T03:29:44.019Z,15.25
2022-11-12T03:30:26.526Z,15.29
2022-11-12T03:31:07.795Z,15.20
2022-11-12T03:31:47.925Z,15.16
2022-11-12T03:32:28.394Z,15.23
2022-11-12T03:33:11.495Z,15.26
2022-11-12T03:33:51.985Z,15.21
2022-11-12T03:34:33.246Z,15.25
2022-11-12T03:35:13.386Z,15.23
2022-11-12T03:35:53.562Z,15.25
2022-11-12T03:36:34.720Z,15.11
2022-11-12T03:37:14.845Z,15.19
2022-11-12T03:37:55.290Z,15.19
2022-11-12T03:38:36.503Z,15.21
2022-11-12T03:39:16.839Z,15.24
2022-11-12T03:39:57.091Z,15.26
2022-11-12T03:40:38.456Z,15.28
2022-11-12T03:41:19.869Z,15.27
2022-11-12T03:42:01.178Z,15.27
2022-11-12T03:42:45.420Z,15.18
2022-11-12T03:43:26.475Z,15.17
2022-11-12T03:44:06.573Z,15.14
2022-11-12T03:44:46.896Z,15.11
2022-11-12T03:45:29.361Z,15.12
2022-11-12T03:46:09.711Z,15.13
2022-11-12T03:46:51.043Z,15.18
2022-11-12T03:47:31.425Z,15.23
2022-11-12T03:48:11.878Z,15.06
2022-11-12T03:48:53.286Z,15.12
2022-11-12T03:49:33.245Z,15.18
2022-11-12T03:50:15.370Z,15.10
2022-11-12T03:50:58.695Z,15.06
2022-11-12T03:51:38.859Z,15.03
2022-11-12T03:52:19.266Z,15.11
2022-11-12T03:53:01.203Z,15.08
2022-11-12T03:53:41.225Z,15.03
2022-11-12T03:54:21.548Z,15.08
2022-11-12T03:55:02.913Z,15.10
2022-11-12T03:55:43.005Z,15.10
2022-11-12T03:56:25.710Z,15.10
2022-11-12T03:57:05.809Z,14.88
2022-11-12T03:57:48.705Z,14.96
2022-11-12T03:58:30.073Z,14.98
2022-11-12T03:59:10.258Z,14.98
2022-11-12T03:59:50.437Z,14.95
2022-11-12T04:00:31.535Z,14.91
2022-11-12T04:01:12.034Z,14.93
2022-11-12T04:01:52.236Z,14.76
2022-11-12T04:02:33.713Z,14.81
2022-11-12T04:03:14.240Z,14.77
2022-11-12T04:03:55.129Z,14.72
2022-11-12T04:04:49.982Z,14.74
2022-11-12T04:05:48.549Z,14.79
2022-11-12T04:06:47.586Z,14.76
2022-11-12T04:07:46.313Z,14.77
2022-11-12T04:08:38.953Z,14.60
2022-11-12T04:09:19.994Z,14.68
2022-11-12T04:10:00.173Z,14.72
2022-11-12T04:10:40.398Z,14.69
2022-11-12T04:11:21.598Z,14.69
2022-11-12T04:12:23.672Z,14.74
2022-11-12T04:13:22.437Z,14.73
2022-11-12T04:14:02.692Z,14.71
2022-11-12T04:14:43.991Z,14.74
2022-11-12T04:15:24.237Z,14.63
2022-11-12T04:16:26.019Z,14.72
2022-11-12T04:17:24.815Z,14.54
2022-11-12T04:18:24.606Z,14.57
2022-11-12T04:19:25.062Z,14.63
2022-11-12T04:20:25.022Z,14.57
2022-11-12T04:21:24.475Z,14.53
2022-11-12T04:22:08.486Z,14.57
2022-11-12T04:22:48.482Z,14.55
2022-11-12T04:23:29.382Z,14.46
2022-11-12T04:24:29.657Z,14.43
2022-11-12T04:25:28.360Z,14.41
2022-11-12T04:26:24.708Z,14.49
2022-11-12T04:27:07.153Z,14.47
2022-11-12T04:27:47.525Z,14.50
2022-11-12T04:28:29.119Z,14.53
2022-11-12T04:29:28.258Z,14.39
2022-11-12T04:30:19.252Z,14.51
2022-11-12T04:30:59.673Z,14.43
2022-11-12T04:31:39.960Z,14.51
2022-11-12T04:32:21.268Z,14.53
2022-11-12T04:33:02.177Z,14.42
2022-11-12T04:33:42.264Z,14.50
2022-11-12T04:34:28.581Z,14.62
2022-11-12T04:35:10.130Z,14.53
2022-11-12T04:35:50.228Z,14.58
2022-11-12T04:36:30.675Z,14.62
2022-11-12T04:37:12.017Z,14.61
2022-11-12T04:37:52.672Z,14.63
2022-11-12T04:38:32.942Z,14.55
2022-11-12T04:39:14.269Z,14.61
2022-11-12T04:39:54.731Z,14.63
2022-11-12T04:40:53.473Z,14.61
2022-11-12T04:41:52.258Z,14.48
2022-11-12T04:42:52.311Z,14.52
2022-11-12T04:43:51.144Z,14.55
2022-11-12T04:44:49.875Z,14.43
2022-11-12T04:45:31.140Z,14.50
2022-11-12T04:46:11.505Z,14.57
2022-11-12T04:46:51.744Z,14.48
2022-11-12T04:47:35.731Z,14.51
2022-11-12T04:48:15.802Z,14.55
2022-11-12T04:48:55.926Z,14.59
2022-11-12T04:49:37.070Z,14.57
2022-11-12T04:50:18.767Z,14.58
2022-11-12T04:51:02.574Z,14.60
2022-11-12T04:52:01.038Z,14.44
2022-11-12T04:52:42.467Z,14.50
2022-11-12T04:53:22.786Z,14.49
2022-11-12T04:54:02.911Z,14.48
2022-11-12T04:54:43.496Z,14.54
2022-11-12T04:55:24.403Z,14.57
2022-11-12T04:56:04.837Z,14.59
2022-11-12T04:56:44.789Z,14.59
2022-11-12T04:57:26.556Z,14.52
2022-11-12T04:58:08.327Z,14.30
2022-11-12T04:58:49.653Z,14.46
2022-11-12T04:59:30.094Z,14.49
2022-11-12T05:00:12.432Z,14.46
2022-11-12T05:00:53.622Z,14.48
2022-11-12T05:01:34.017Z,14.51
2022-11-12T05:02:14.332Z,14.52
2022-11-12T05:02:55.583Z,14.44
2022-11-12T05:03:35.736Z,14.34
2022-11-12T05:04:16.021Z,14.33
2022-11-12T05:04:57.258Z,14.30
2022-11-12T05:05:37.249Z,14.25
2022-11-12T05:06:36.192Z,14.20
2022-11-12T05:07:17.985Z,14.24
2022-11-12T05:07:59.644Z,14.07
2022-11-12T05:08:39.683Z,14.01
2022-11-12T05:09:22.563Z,14.12
2022-11-12T05:10:03.180Z,14.15
2022-11-12T05:10:44.467Z,14.15
2022-11-12T05:11:25.751Z,14.20
2022-11-12T05:12:06.772Z,14.15
2022-11-12T05:12:47.900Z,14.13
2022-11-12T05:13:29.583Z,14.10
2022-11-12T05:14:09.868Z,14.17
2022-11-12T05:14:51.103Z,14.20
2022-11-12T05:15:31.351Z,14.17
2022-11-12T05:16:12.578Z,14.20
2022-11-12T05:16:53.591Z,14.14
2022-11-12T05:17:33.726Z,14.14
2022-11-12T05:18:15.135Z,14.17
2022-11-12T05:18:55.566Z,14.15
2022-11-12T05:19:36.124Z,14.24
2022-11-12T05:20:18.106Z,14.21
2022-11-12T05:20:58.293Z,14.27
2022-11-12T05:21:57.707Z,14.31
2022-11-12T05:22:47.809Z,14.32
2022-11-12T05:23:34.670Z,14.34
2022-11-12T05:24:40.067Z,14.37
2022-11-12T05:25:16.886Z,14.45
2022-11-12T05:25:57.402Z,14.47
2022-11-12T05:26:37.651Z,14.45
2022-11-12T05:27:20.925Z,14.52
2022-11-12T05:28:01.234Z,14.52
2022-11-12T05:28:42.840Z,14.57
2022-11-12T05:29:24.040Z,14.58
2022-11-12T05:30:04.849Z,14.42
2022-11-12T05:30:48.074Z,14.41
2022-11-12T05:31:29.301Z,14.36
2022-11-12T05:32:12.589Z,14.45
2022-11-12T05:32:53.902Z,14.44
2022-11-12T05:33:33.901Z,14.50
2022-11-12T05:34:17.443Z,14.49
2022-11-12T05:35:01.151Z,14.52
2022-11-12T05:35:41.350Z,14.55
2022-11-12T05:36:21.639Z,14.58
2022-11-12T05:37:04.470Z,14.60
2022-11-12T05:37:44.414Z,14.56
2022-11-12T05:38:25.973Z,14.54
2022-11-12T05:39:06.374Z,14.54
2022-11-12T05:39:47.643Z,14.50
2022-11-12T05:40:27.736Z,14.54
2022-11-12T05:41:08.113Z,14.53
2022-11-12T05:42:11.364Z,14.44
2022-11-12T05:42:49.508Z,14.44
2022-11-12T05:43:30.880Z,14.45
2022-11-12T05:44:12.466Z,14.40
2022-11-12T05:44:53.812Z,14.39
2022-11-12T05:45:33.819Z,14.36
2022-11-12T05:46:13.999Z,14.41
2022-11-12T05:46:55.544Z,14.31
2022-11-12T05:47:36.016Z,14.38
2022-11-12T05:48:21.477Z,14.37
2022-11-12T05:49:05.106Z,14.36
2022-11-12T05:49:45.347Z,14.31
2022-11-12T05:50:34.936Z,14.21
2022-11-12T05:51:20.350Z,14.27
2022-11-12T05:52:01.758Z,14.31
2022-11-12T05:52:41.801Z,14.33
2022-11-12T05:53:22.167Z,14.32
2022-11-12T05:54:03.429Z,14.33
2022-11-12T05:54:43.402Z,14.31
2022-11-12T05:55:24.773Z,14.32
2022-11-12T05:56:06.774Z,14.34
2022-11-12T05:56:48.299Z,14.16
2022-11-12T05:57:28.512Z,14.27
2022-11-12T05:58:08.930Z,14.22
2022-11-12T05:58:50.296Z,14.17
2022-11-12T05:59:31.598Z,14.12
2022-11-12T06:00:12.698Z,14.07
2022-11-12T06:00:53.653Z,14.02
2022-11-12T06:01:33.864Z,14.02
2022-11-12T06:02:14.936Z,13.96
2022-11-12T06:02:57.363Z,13.91
2022-11-12T06:03:37.610Z,13.82
2022-11-12T06:04:19.187Z,13.80
2022-11-12T06:04:59.147Z,13.69
2022-11-12T06:05:39.570Z,13.70
2022-11-12T06:06:20.928Z,13.65
2022-11-12T06:07:03.349Z,13.81
2022-11-12T06:07:44.668Z,13.84
2022-11-12T06:08:25.365Z,13.72
2022-11-12T06:09:06.908Z,13.78
2022-11-12T06:09:46.993Z,13.86
2022-11-12T06:10:27.616Z,13.97
2022-11-12T06:11:08.932Z,13.94
2022-11-12T06:11:49.413Z,13.86
2022-11-12T06:12:31.191Z,13.89
2022-11-12T06:13:11.236Z,13.87
2022-11-12T06:13:52.575Z,13.89
2022-11-12T06:14:33.995Z,13.86
2022-11-12T06:15:14.516Z,13.92
2022-11-12T06:15:56.938Z,13.95
2022-11-12T06:16:36.992Z,13.79
2022-11-12T06:17:18.760Z,13.70
2022-11-12T06:17:58.900Z,13.77
2022-11-12T06:18:39.311Z,13.77
2022-11-12T06:19:20.602Z,13.73
2022-11-12T06:20:00.595Z,13.77
2022-11-12T06:20:41.282Z,13.70
2022-11-12T06:21:26.916Z,13.79
2022-11-12T06:22:07.196Z,13.59
2022-11-12T06:22:48.590Z,13.65
2022-11-12T06:23:28.533Z,13.73
2022-11-12T06:24:10.601Z,13.80
2022-11-12T06:24:50.711Z,13.80
2022-11-12T06:25:32.211Z,13.82
2022-11-12T06:26:12.783Z,13.83
2022-11-12T06:26:53.782Z,13.85
2022-11-12T06:27:33.747Z,13.82
2022-11-12T06:28:14.089Z,13.58
2022-11-12T06:28:55.519Z,13.64
2022-11-12T06:29:38.509Z,13.76
2022-11-12T06:30:24.451Z,13.78
2022-11-12T06:31:06.864Z,13.72
2022-11-12T06:31:47.059Z,13.81
2022-11-12T06:32:28.465Z,13.85
2022-11-12T06:33:08.516Z,13.68
2022-11-12T06:33:51.464Z,13.71
2022-11-12T06:34:31.466Z,13.78
2022-11-12T06:35:11.741Z,13.77
2022-11-12T06:36:03.243Z,13.61
2022-11-12T06:36:43.551Z,13.59
2022-11-12T06:37:26.293Z,13.63
2022-11-12T06:38:06.694Z,13.70
2022-11-12T06:38:48.407Z,13.75
2022-11-12T06:39:28.723Z,13.78
2022-11-12T06:40:09.493Z,13.73
2022-11-12T06:40:50.822Z,13.78
2022-11-12T06:41:31.112Z,13.90
2022-11-12T06:42:12.390Z,13.84
2022-11-12T06:42:56.883Z,13.94
2022-11-12T06:43:38.819Z,13.90
2022-11-12T06:44:22.157Z,13.97
2022-11-12T06:45:05.015Z,13.99
2022-11-12T06:45:46.040Z,14.06
2022-11-12T06:46:26.431Z,14.12
2022-11-12T06:47:07.795Z,14.08
2022-11-12T06:47:47.945Z,13.97
2022-11-12T06:48:28.763Z,13.89
2022-11-12T06:49:10.004Z,13.91
2022-11-12T06:49:50.150Z,13.76
2022-11-12T06:50:30.314Z,13.72
2022-11-12T06:51:17.213Z,13.76
2022-11-12T06:51:57.609Z,13.62
2022-11-12T06:52:37.885Z,13.72
2022-11-12T06:53:19.085Z,13.57
2022-11-12T06:53:59.536Z,13.61
2022-11-12T06:54:40.796Z,13.55
2022-11-12T06:55:21.010Z,13.69
2022-11-12T06:56:03.502Z,13.61
2022-11-12T06:56:43.775Z,13.67
2022-11-12T06:57:24.180Z,13.68
2022-11-12T06:58:05.394Z,13.74
2022-11-12T06:58:45.768Z,13.76
2022-11-12T06:59:27.197Z,13.80
2022-11-12T07:00:10.363Z,13.84
2022-11-12T07:00:51.748Z,13.86
2022-11-12T07:01:31.925Z,13.84
2022-11-12T07:02:13.512Z,13.81
2022-11-12T07:02:53.616Z,13.80
2022-11-12T07:03:34.751Z,13.81
2022-11-12T07:04:14.982Z,13.71
2022-11-12T07:04:56.396Z,13.82
2022-11-12T07:05:37.902Z,13.90
2022-11-12T07:06:20.374Z,13.87
2022-11-12T07:07:00.611Z,13.94
2022-11-12T07:07:41.361Z,13.91
2022-11-12T07:08:22.699Z,13.95
2022-11-12T07:09:03.248Z,13.95
2022-11-12T07:09:43.675Z,13.90
2022-11-12T07:10:25.068Z,13.94
2022-11-12T07:11:05.630Z,13.90
2022-11-12T07:11:46.991Z,13.94
2022-11-12T07:12:27.079Z,13.95
2022-11-12T07:13:07.310Z,14.02
2022-11-12T07:13:49.321Z,14.01
2022-11-12T07:14:29.824Z,13.94
2022-11-12T07:15:11.785Z,13.95
2022-11-12T07:15:52.756Z,13.88
2022-11-12T07:16:33.408Z,13.95
2022-11-12T07:17:14.724Z,13.94
2022-11-12T07:17:54.551Z,13.93
2022-11-12T07:18:36.487Z,14.01
2022-11-12T07:19:16.839Z,14.07
2022-11-12T07:20:02.317Z,14.11
2022-11-12T07:20:44.913Z,14.07
2022-11-12T07:21:26.188Z,14.09
2022-11-12T07:22:06.296Z,13.92
2022-11-12T07:22:47.462Z,13.95
2022-11-12T07:23:30.147Z,14.00
2022-11-12T07:24:11.255Z,14.03
2022-11-12T07:24:51.366Z,14.03
2022-11-12T07:25:31.793Z,14.05
2022-11-12T07:26:15.535Z,14.05
2022-11-12T07:26:55.895Z,14.04
2022-11-12T07:27:36.646Z,14.11
2022-11-12T07:28:17.806Z,14.17
2022-11-12T07:28:58.260Z,14.16
2022-11-12T07:29:47.364Z,14.20
2022-11-12T07:30:31.060Z,14.28
2022-11-12T07:31:13.058Z,14.30
2022-11-12T07:31:54.214Z,14.25
2022-11-12T07:32:37.425Z,14.30
2022-11-12T07:33:21.292Z,14.31
2022-11-12T07:34:01.607Z,14.35
2022-11-12T07:34:42.090Z,14.39
2022-11-12T07:35:23.422Z,14.40
2022-11-12T07:36:05.360Z,14.45
2022-11-12T07:36:46.607Z,14.45
2022-11-12T07:37:26.805Z,14.48
2022-11-12T07:38:08.206Z,14.34
2022-11-12T07:38:53.621Z,14.34
2022-11-12T07:39:34.658Z,14.33
2022-11-12T07:40:15.337Z,14.39
2022-11-12T07:41:01.182Z,14.33
2022-11-12T07:41:41.176Z,14.36
2022-11-12T07:42:22.488Z,14.36
2022-11-12T07:43:02.695Z,14.12
2022-11-12T07:43:47.003Z,14.32
2022-11-12T07:44:27.213Z,14.31
2022-11-12T07:45:09.027Z,14.37
2022-11-12T07:45:50.708Z,14.32
2022-11-12T07:46:32.007Z,14.39
2022-11-12T07:47:12.444Z,14.43
2022-11-12T07:47:53.723Z,14.41
2022-11-12T07:48:34.361Z,14.23
2022-11-12T07:49:15.734Z,14.39
2022-11-12T07:49:55.752Z,14.44
2022-11-12T07:50:37.124Z,14.48
2022-11-12T07:51:19.765Z,14.46
2022-11-12T07:52:00.835Z,14.54
2022-11-12T07:52:41.032Z,14.54
2022-11-12T07:53:22.435Z,14.59
2022-11-12T07:54:02.696Z,14.28
2022-11-12T07:54:44.118Z,14.46
2022-11-12T07:55:24.150Z,14.32
2022-11-12T07:56:06.179Z,14.40
2022-11-12T07:56:46.312Z,14.44
2022-11-12T07:57:27.526Z,14.48
2022-11-12T07:58:07.815Z,14.41
2022-11-12T07:58:50.409Z,14.48
2022-11-12T07:59:45.747Z,14.45
2022-11-12T08:00:30.162Z,14.31
2022-11-12T08:01:24.041Z,14.33
2022-11-12T08:02:05.610Z,14.34
2022-11-12T08:02:45.737Z,14.30
2022-11-12T08:03:27.643Z,14.25
2022-11-12T08:04:10.507Z,14.25
2022-11-12T08:04:51.551Z,14.25
2022-11-12T08:05:33.534Z,14.34
2022-11-12T08:06:15.091Z,14.39
2022-11-12T08:06:55.488Z,14.41
2022-11-12T08:07:37.435Z,14.33
2022-11-12T08:08:17.819Z,14.39
2022-11-12T08:09:01.695Z,14.36
2022-11-12T08:09:41.899Z,14.40
2022-11-12T08:10:23.109Z,14.43
2022-11-12T08:11:03.154Z,14.45
2022-11-12T08:11:44.483Z,14.50
2022-11-12T08:12:24.584Z,14.52
2022-11-12T08:13:05.177Z,14.53
2022-11-12T08:13:46.562Z,14.43
2022-11-12T08:14:26.805Z,14.41
2022-11-12T08:15:08.459Z,14.45
2022-11-12T08:15:52.220Z,14.51
2022-11-12T08:16:34.985Z,14.59
2022-11-12T08:17:15.007Z,14.62
2022-11-12T08:17:56.293Z,14.68
2022-11-12T08:18:36.356Z,14.64
2022-11-12T08:19:17.779Z,14.66
2022-11-12T08:19:58.186Z,14.50
2022-11-12T08:20:39.522Z,14.58
2022-11-12T08:21:19.568Z,14.55
2022-11-12T08:21:59.965Z,14.37
2022-11-12T08:22:45.053Z,14.48
2022-11-12T08:23:28.243Z,14.62
2022-11-12T08:24:09.890Z,14.52
2022-11-12T08:24:50.101Z,14.54
2022-11-12T08:25:31.437Z,14.53
2022-11-12T08:26:13.315Z,14.59
2022-11-12T08:26:54.339Z,14.55
2022-11-12T08:27:34.803Z,14.54
2022-11-12T08:28:15.899Z,14.67
2022-11-12T08:28:55.938Z,14.66
2022-11-12T08:29:37.304Z,14.53
2022-11-12T08:30:17.662Z,14.61
2022-11-12T08:30:58.076Z,14.69
2022-11-12T08:31:40.732Z,14.72
2022-11-12T08:32:20.788Z,14.78
2022-11-12T08:33:04.226Z,14.77
2022-11-12T08:33:44.670Z,14.86
2022-11-12T08:34:25.626Z,14.94
2022-11-12T08:35:06.607Z,14.96
2022-11-12T08:35:47.624Z,14.79
2022-11-12T08:36:28.691Z,15.03
2022-11-12T08:37:10.279Z,14.92
2022-11-12T08:37:50.202Z,14.95
2022-11-12T08:38:31.492Z,14.93
2022-11-12T08:39:11.776Z,14.76
2022-11-12T08:39:53.652Z,14.90
2022-11-12T08:40:34.323Z,14.81
2022-11-12T08:41:17.541Z,14.96
2022-11-12T08:41:57.523Z,15.03
2022-11-12T08:42:38.924Z,15.09
2022-11-12T08:43:18.974Z,15.09
2022-11-12T08:44:02.989Z,15.11
2022-11-12T08:44:48.136Z,14.99
2022-11-12T08:45:29.683Z,14.97
2022-11-12T08:46:11.407Z,14.95
2022-11-12T08:46:52.747Z,15.08
2022-11-12T08:47:34.198Z,15.19
2022-11-12T08:48:15.667Z,15.26
2022-11-12T08:48:57.024Z,15.33
2022-11-12T08:49:37.055Z,15.38
2022-11-12T08:50:18.344Z,15.39
2022-11-12T08:51:01.604Z,15.42
2022-11-12T08:51:43.179Z,15.49
2022-11-12T08:52:23.297Z,15.53
2022-11-12T08:53:06.586Z,15.58
2022-11-12T08:53:46.937Z,15.64
2022-11-12T08:54:28.117Z,15.65
2022-11-12T08:55:08.879Z,15.57
2022-11-12T08:55:50.155Z,15.40
2022-11-12T08:56:30.428Z,15.49
2022-11-12T08:57:11.486Z,15.57
2022-11-12T08:57:51.678Z,15.72
2022-11-12T08:58:31.990Z,15.81
2022-11-12T08:59:13.610Z,15.86
2022-11-12T08:59:53.919Z,15.89
2022-11-12T09:00:37.390Z,15.99
2022-11-12T09:01:17.451Z,16.04
2022-11-12T09:02:00.178Z,16.19
2022-11-12T09:02:40.204Z,16.27